GATCU EGGP-EGPK
Flight info
| Callsign | GATCU |
|---|---|
| Flight time | N/A |
| Altitude | 12000 |
| Route | POL N601 RIBEL DCT ASLIB |
| Aircraft | BE33/L-SADFGRY/S |
Departure
| Time | N/A |
|---|---|
| Airport | Liverpool John Lennon Airport (EGGP) |
Arrival
| Time | 2026-04-24 19:13 |
|---|---|
| Airport | Glasgow Prestwick Airport (EGPK) |
| Time | Latitude | Longitude | Altitude | Speed | Heading |
|---|---|---|---|---|---|
| 2026-04-24 18:54 | 54.99078 | -3.79950 | 10446 ft | 178 kts | 328° |
| 2026-04-24 18:55 | 55.01409 | -3.81330 | 10039 ft | 176 kts | 334° |
| 2026-04-24 18:55 | 55.02515 | -3.82234 | 9837 ft | 176 kts | 334° |
| 2026-04-24 18:55 | 55.03624 | -3.83151 | 9634 ft | 176 kts | 334° |
| 2026-04-24 18:56 | 55.04725 | -3.84073 | 9430 ft | 176 kts | 334° |
| 2026-04-24 18:56 | 55.05809 | -3.84987 | 9338 ft | 170 kts | 334° |
| 2026-04-24 18:56 | 55.06860 | -3.85881 | 9324 ft | 162 kts | 334° |
| 2026-04-24 18:56 | 55.07861 | -3.86730 | 9322 ft | 156 kts | 334° |
| 2026-04-24 18:57 | 55.08816 | -3.87538 | 9323 ft | 151 kts | 334° |
| 2026-04-24 18:57 | 55.09753 | -3.88326 | 9325 ft | 148 kts | 334° |
| 2026-04-24 18:57 | 55.10678 | -3.89104 | 9327 ft | 145 kts | 334° |
| 2026-04-24 18:57 | 55.11581 | -3.89861 | 9326 ft | 143 kts | 334° |
| 2026-04-24 18:58 | 55.12472 | -3.90609 | 9325 ft | 142 kts | 334° |
| 2026-04-24 18:58 | 55.13369 | -3.91359 | 9324 ft | 141 kts | 334° |
| 2026-04-24 18:58 | 55.14248 | -3.92095 | 9324 ft | 140 kts | 334° |
| 2026-04-24 18:58 | 55.15122 | -3.92828 | 9324 ft | 139 kts | 334° |
| 2026-04-24 18:59 | 55.16002 | -3.93569 | 9325 ft | 140 kts | 334° |
| 2026-04-24 18:59 | 55.16880 | -3.94309 | 9325 ft | 141 kts | 334° |
| 2026-04-24 18:59 | 55.17770 | -3.95061 | 9320 ft | 142 kts | 334° |
| 2026-04-24 18:59 | 55.18692 | -3.95841 | 9181 ft | 152 kts | 334° |
| 2026-04-24 19:00 | 55.19661 | -3.96662 | 9034 ft | 159 kts | 334° |
| 2026-04-24 19:00 | 55.20683 | -3.97529 | 8884 ft | 164 kts | 334° |
| 2026-04-24 19:00 | 55.21708 | -3.98399 | 8734 ft | 167 kts | 334° |
| 2026-04-24 19:00 | 55.22776 | -3.99302 | 8580 ft | 170 kts | 334° |
| 2026-04-24 19:01 | 55.23853 | -4.00207 | 8390 ft | 172 kts | 334° |
| 2026-04-24 19:01 | 55.24923 | -4.01103 | 8187 ft | 171 kts | 334° |
| 2026-04-24 19:01 | 55.25980 | -4.01985 | 7990 ft | 166 kts | 334° |
| 2026-04-24 19:01 | 55.27001 | -4.02843 | 7809 ft | 161 kts | 334° |
| 2026-04-24 19:02 | 55.27674 | -4.03411 | 7686 ft | 159 kts | 334° |
| 2026-04-24 19:02 | 55.28981 | -4.04524 | 7449 ft | 155 kts | 334° |
| 2026-04-24 19:02 | 55.29936 | -4.05348 | 7275 ft | 153 kts | 334° |
| 2026-04-24 19:02 | 55.30886 | -4.06169 | 7102 ft | 152 kts | 334° |
| 2026-04-24 19:03 | 55.31833 | -4.06992 | 6923 ft | 151 kts | 334° |
| 2026-04-24 19:03 | 55.32662 | -4.08117 | 6747 ft | 151 kts | 319° |
| 2026-04-24 19:03 | 55.33388 | -4.09445 | 6573 ft | 151 kts | 307° |
| 2026-04-24 19:03 | 55.33964 | -4.10965 | 6404 ft | 151 kts | 302° |
| 2026-04-24 19:04 | 55.34520 | -4.12535 | 6230 ft | 152 kts | 302° |
| 2026-04-24 19:04 | 55.35072 | -4.14109 | 6051 ft | 152 kts | 301° |
| 2026-04-24 19:04 | 55.35627 | -4.15702 | 5876 ft | 152 kts | 301° |
| 2026-04-24 19:04 | 55.36164 | -4.17226 | 5891 ft | 140 kts | 302° |
| 2026-04-24 19:05 | 55.36662 | -4.18639 | 5785 ft | 140 kts | 302° |
| 2026-04-24 19:05 | 55.37196 | -4.20152 | 5523 ft | 148 kts | 302° |
| 2026-04-24 19:05 | 55.37742 | -4.21697 | 5300 ft | 152 kts | 302° |
| 2026-04-24 19:05 | 55.38308 | -4.23304 | 5077 ft | 155 kts | 302° |
| 2026-04-24 19:06 | 55.38873 | -4.24909 | 4862 ft | 157 kts | 302° |
| 2026-04-24 19:06 | 55.39454 | -4.26563 | 4644 ft | 159 kts | 302° |
| 2026-04-24 19:06 | 55.40016 | -4.28163 | 4572 ft | 149 kts | 302° |
| 2026-04-24 19:06 | 55.40554 | -4.29698 | 4363 ft | 142 kts | 302° |
| 2026-04-24 19:07 | 55.41057 | -4.31131 | 4171 ft | 134 kts | 303° |
| 2026-04-24 19:07 | 55.41531 | -4.32478 | 3975 ft | 128 kts | 303° |
| 2026-04-24 19:07 | 55.41836 | -4.33352 | 3882 ft | 122 kts | 303° |
| 2026-04-24 19:07 | 55.42422 | -4.35023 | 3627 ft | 118 kts | 303° |
| 2026-04-24 19:08 | 55.42849 | -4.36243 | 3447 ft | 115 kts | 303° |
| 2026-04-24 19:08 | 55.43257 | -4.37410 | 3265 ft | 113 kts | 303° |
| 2026-04-24 19:08 | 55.43668 | -4.38584 | 3082 ft | 111 kts | 303° |
| 2026-04-24 19:08 | 55.44068 | -4.39730 | 2901 ft | 110 kts | 303° |
| 2026-04-24 19:09 | 55.44467 | -4.40874 | 2718 ft | 109 kts | 303° |
| 2026-04-24 19:09 | 55.44865 | -4.42008 | 2539 ft | 109 kts | 303° |
| 2026-04-24 19:09 | 55.45263 | -4.43149 | 2362 ft | 109 kts | 303° |
| 2026-04-24 19:09 | 55.45659 | -4.44282 | 2183 ft | 109 kts | 303° |
| 2026-04-24 19:10 | 55.46053 | -4.45411 | 2005 ft | 109 kts | 303° |
| 2026-04-24 19:10 | 55.46450 | -4.46551 | 1827 ft | 109 kts | 303° |
| 2026-04-24 19:10 | 55.46843 | -4.47677 | 1650 ft | 108 kts | 303° |
| 2026-04-24 19:10 | 55.47236 | -4.48806 | 1474 ft | 108 kts | 303° |
| 2026-04-24 19:11 | 55.47622 | -4.49913 | 1310 ft | 102 kts | 303° |
| 2026-04-24 19:11 | 55.47979 | -4.50939 | 1141 ft | 97 kts | 302° |
| 2026-04-24 19:11 | 55.48327 | -4.51940 | 991 ft | 92 kts | 302° |
| 2026-04-24 19:11 | 55.48658 | -4.52893 | 838 ft | 90 kts | 302° |
| 2026-04-24 19:12 | 55.48983 | -4.53828 | 691 ft | 88 kts | 302° |
| 2026-04-24 19:12 | 55.49299 | -4.54740 | 549 ft | 86 kts | 302° |
| 2026-04-24 19:12 | 55.49608 | -4.55629 | 411 ft | 84 kts | 302° |
| 2026-04-24 19:12 | 55.49902 | -4.56510 | 270 ft | 83 kts | 300° |
| 2026-04-24 19:13 | 55.50102 | -4.57087 | 184 ft | 81 kts | 302° |
| 2026-04-24 19:13 | 55.50476 | -4.58137 | 77 ft | 69 kts | 301° |
| 2026-04-24 19:13 | 55.50698 | -4.58792 | 66 ft | 52 kts | 301° |
| 2026-04-24 19:13 | 55.50798 | -4.59112 | 66 ft | 14 kts | 249° |
| 2026-04-24 19:14 | 55.50750 | -4.59245 | 66 ft | 12 kts | 234° |
| 2026-04-24 19:14 | 55.50720 | -4.59392 | 66 ft | 13 kts | 278° |
| 2026-04-24 19:14 | 55.50764 | -4.59548 | 66 ft | 14 kts | 301° |
| 2026-04-24 19:14 | 55.50800 | -4.59695 | 66 ft | 12 kts | 247° |
| 2026-04-24 19:15 | 55.50754 | -4.59786 | 67 ft | 9 kts | 240° |
| 2026-04-24 19:15 | 55.50733 | -4.59853 | 67 ft | 0 kts | 245° |